sensor_id;sensor_type;location;lat;lon;timestamp;P1;durP1;ratioP1;P2;durP2;ratioP2
58242;SDS011;50118;53.232;8.252;2023-08-17T00:01:38;7.03;;;3.10;;
58242;SDS011;50118;53.232;8.252;2023-08-17T00:04:16;6.40;;;3.20;;
58242;SDS011;50118;53.232;8.252;2023-08-17T00:06:42;7.80;;;2.88;;
58242;SDS011;50118;53.232;8.252;2023-08-17T00:09:07;5.70;;;3.00;;
58242;SDS011;50118;53.232;8.252;2023-08-17T00:11:37;6.20;;;2.90;;
58242;SDS011;50118;53.232;8.252;2023-08-17T00:14:03;5.82;;;3.00;;
58242;SDS011;50118;53.232;8.252;2023-08-17T00:16:28;6.63;;;3.30;;
58242;SDS011;50118;53.232;8.252;2023-08-17T00:18:54;8.23;;;3.22;;
58242;SDS011;50118;53.232;8.252;2023-08-17T00:21:20;7.15;;;3.33;;
58242;SDS011;50118;53.232;8.252;2023-08-17T00:23:45;6.15;;;3.30;;
58242;SDS011;50118;53.232;8.252;2023-08-17T00:26:11;6.40;;;3.25;;
58242;SDS011;50118;53.232;8.252;2023-08-17T00:28:37;8.27;;;3.45;;
58242;SDS011;50118;53.232;8.252;2023-08-17T00:31:02;5.85;;;2.90;;
58242;SDS011;50118;53.232;8.252;2023-08-17T00:33:29;6.57;;;3.25;;
58242;SDS011;50118;53.232;8.252;2023-08-17T00:35:54;6.72;;;3.20;;
58242;SDS011;50118;53.232;8.252;2023-08-17T00:38:20;6.03;;;3.17;;
58242;SDS011;50118;53.232;8.252;2023-08-17T00:40:46;8.00;;;3.20;;
58242;SDS011;50118;53.232;8.252;2023-08-17T00:43:14;5.45;;;2.90;;
58242;SDS011;50118;53.232;8.252;2023-08-17T00:45:47;5.88;;;3.58;;
58242;SDS011;50118;53.232;8.252;2023-08-17T00:48:13;7.38;;;3.60;;
58242;SDS011;50118;53.232;8.252;2023-08-17T00:50:39;7.20;;;3.45;;
58242;SDS011;50118;53.232;8.252;2023-08-17T00:53:05;9.43;;;3.70;;
58242;SDS011;50118;53.232;8.252;2023-08-17T00:55:32;6.25;;;3.55;;
58242;SDS011;50118;53.232;8.252;2023-08-17T00:57:58;6.03;;;3.72;;
58242;SDS011;50118;53.232;8.252;2023-08-17T01:00:24;6.20;;;3.65;;
58242;SDS011;50118;53.232;8.252;2023-08-17T01:02:52;7.18;;;3.80;;
58242;SDS011;50118;53.232;8.252;2023-08-17T01:05:19;7.72;;;4.40;;
58242;SDS011;50118;53.232;8.252;2023-08-17T01:07:44;7.78;;;4.05;;
58242;SDS011;50118;53.232;8.252;2023-08-17T01:10:10;5.93;;;3.45;;
58242;SDS011;50118;53.232;8.252;2023-08-17T01:20:09;10.95;;;4.22;;
58242;SDS011;50118;53.232;8.252;2023-08-17T01:22:37;9.57;;;3.80;;
58242;SDS011;50118;53.232;8.252;2023-08-17T01:25:10;9.32;;;3.90;;
58242;SDS011;50118;53.232;8.252;2023-08-17T01:27:44;11.18;;;3.90;;
58242;SDS011;50118;53.232;8.252;2023-08-17T01:30:15;7.65;;;3.50;;
58242;SDS011;50118;53.232;8.252;2023-08-17T01:35:27;8.25;;;3.55;;
58242;SDS011;50118;53.232;8.252;2023-08-17T01:37:55;8.25;;;3.63;;
58242;SDS011;50118;53.232;8.252;2023-08-17T01:40:24;6.35;;;3.55;;
58242;SDS011;50118;53.232;8.252;2023-08-17T01:42:53;8.57;;;3.53;;
58242;SDS011;50118;53.232;8.252;2023-08-17T01:45:20;7.80;;;3.47;;
58242;SDS011;50118;53.232;8.252;2023-08-17T01:47:46;7.80;;;3.53;;
58242;SDS011;50118;53.232;8.252;2023-08-17T01:50:11;6.50;;;3.20;;
58242;SDS011;50118;53.232;8.252;2023-08-17T01:52:37;6.40;;;3.40;;
58242;SDS011;50118;53.232;8.252;2023-08-17T01:55:05;7.35;;;3.30;;
58242;SDS011;50118;53.232;8.252;2023-08-17T01:57:31;9.35;;;3.33;;
58242;SDS011;50118;53.232;8.252;2023-08-17T01:59:56;8.00;;;3.10;;
58242;SDS011;50118;53.232;8.252;2023-08-17T02:02:22;8.13;;;3.55;;
58242;SDS011;50118;53.232;8.252;2023-08-17T02:04:47;9.48;;;3.05;;
58242;SDS011;50118;53.232;8.252;2023-08-17T02:07:13;5.63;;;2.90;;
58242;SDS011;50118;53.232;8.252;2023-08-17T02:09:38;5.80;;;3.22;;
58242;SDS011;50118;53.232;8.252;2023-08-17T02:12:04;7.60;;;3.38;;
58242;SDS011;50118;53.232;8.252;2023-08-17T02:14:30;8.10;;;3.08;;
58242;SDS011;50118;53.232;8.252;2023-08-17T02:16:55;9.73;;;3.38;;
58242;SDS011;50118;53.232;8.252;2023-08-17T02:19:21;7.30;;;3.28;;
58242;SDS011;50118;53.232;8.252;2023-08-17T02:21:46;7.47;;;3.10;;
58242;SDS011;50118;53.232;8.252;2023-08-17T02:24:12;8.88;;;3.63;;
58242;SDS011;50118;53.232;8.252;2023-08-17T02:26:37;5.97;;;3.20;;
58242;SDS011;50118;53.232;8.252;2023-08-17T02:29:03;7.32;;;3.28;;
58242;SDS011;50118;53.232;8.252;2023-08-17T02:31:29;8.82;;;3.38;;
58242;SDS011;50118;53.232;8.252;2023-08-17T02:33:54;5.60;;;3.17;;
58242;SDS011;50118;53.232;8.252;2023-08-17T02:36:25;9.38;;;3.30;;
58242;SDS011;50118;53.232;8.252;2023-08-17T02:38:54;8.07;;;3.25;;
58242;SDS011;50118;53.232;8.252;2023-08-17T02:41:20;5.72;;;3.03;;
58242;SDS011;50118;53.232;8.252;2023-08-17T02:43:45;7.38;;;3.08;;
58242;SDS011;50118;53.232;8.252;2023-08-17T02:46:11;6.63;;;3.40;;
58242;SDS011;50118;53.232;8.252;2023-08-17T02:48:36;6.93;;;3.15;;
58242;SDS011;50118;53.232;8.252;2023-08-17T02:51:02;8.27;;;3.42;;
58242;SDS011;50118;53.232;8.252;2023-08-17T02:53:27;6.95;;;2.90;;
58242;SDS011;50118;53.232;8.252;2023-08-17T02:55:53;6.80;;;3.10;;
58242;SDS011;50118;53.232;8.252;2023-08-17T02:58:18;7.15;;;2.97;;
58242;SDS011;50118;53.232;8.252;2023-08-17T03:00:44;5.50;;;2.95;;
58242;SDS011;50118;53.232;8.252;2023-08-17T03:03:10;6.45;;;3.00;;
58242;SDS011;50118;53.232;8.252;2023-08-17T03:05:35;6.70;;;2.90;;
58242;SDS011;50118;53.232;8.252;2023-08-17T03:08:01;6.57;;;2.78;;
58242;SDS011;50118;53.232;8.252;2023-08-17T03:10:26;7.38;;;2.65;;
58242;SDS011;50118;53.232;8.252;2023-08-17T03:12:52;7.10;;;3.05;;
58242;SDS011;50118;53.232;8.252;2023-08-17T03:15:17;7.85;;;2.88;;
58242;SDS011;50118;53.232;8.252;2023-08-17T03:17:43;5.70;;;2.72;;
58242;SDS011;50118;53.232;8.252;2023-08-17T03:20:08;9.43;;;3.17;;
58242;SDS011;50118;53.232;8.252;2023-08-17T03:22:34;4.78;;;2.63;;
58242;SDS011;50118;53.232;8.252;2023-08-17T03:25:00;5.32;;;2.60;;
58242;SDS011;50118;53.232;8.252;2023-08-17T03:27:25;4.50;;;2.25;;
58242;SDS011;50118;53.232;8.252;2023-08-17T03:29:51;6.45;;;2.80;;
58242;SDS011;50118;53.232;8.252;2023-08-17T03:32:17;5.82;;;2.80;;
58242;SDS011;50118;53.232;8.252;2023-08-17T03:34:42;6.10;;;2.58;;
58242;SDS011;50118;53.232;8.252;2023-08-17T03:37:08;5.00;;;2.85;;
58242;SDS011;50118;53.232;8.252;2023-08-17T03:39:33;4.15;;;2.60;;
58242;SDS011;50118;53.232;8.252;2023-08-17T03:41:59;6.43;;;2.50;;
58242;SDS011;50118;53.232;8.252;2023-08-17T03:44:24;7.05;;;2.70;;
58242;SDS011;50118;53.232;8.252;2023-08-17T03:46:50;6.50;;;2.78;;
58242;SDS011;50118;53.232;8.252;2023-08-17T03:49:15;4.55;;;2.47;;
58242;SDS011;50118;53.232;8.252;2023-08-17T03:51:41;6.13;;;2.42;;
58242;SDS011;50118;53.232;8.252;2023-08-17T03:54:07;6.72;;;2.42;;
58242;SDS011;50118;53.232;8.252;2023-08-17T03:56:32;5.68;;;2.50;;
58242;SDS011;50118;53.232;8.252;2023-08-17T03:58:58;7.03;;;2.80;;
58242;SDS011;50118;53.232;8.252;2023-08-17T04:01:23;5.53;;;2.53;;
58242;SDS011;50118;53.232;8.252;2023-08-17T04:03:49;6.07;;;2.70;;
58242;SDS011;50118;53.232;8.252;2023-08-17T04:06:15;6.00;;;2.60;;
58242;SDS011;50118;53.232;8.252;2023-08-17T04:08:40;7.45;;;2.90;;
58242;SDS011;50118;53.232;8.252;2023-08-17T04:11:06;6.82;;;2.90;;
58242;SDS011;50118;53.232;8.252;2023-08-17T04:13:31;6.30;;;2.78;;
58242;SDS011;50118;53.232;8.252;2023-08-17T04:15:57;6.10;;;2.80;;
58242;SDS011;50118;53.232;8.252;2023-08-17T04:18:22;6.85;;;2.80;;
58242;SDS011;50118;53.232;8.252;2023-08-17T04:20:48;4.97;;;2.80;;
58242;SDS011;50118;53.232;8.252;2023-08-17T04:23:15;5.00;;;2.60;;
58242;SDS011;50118;53.232;8.252;2023-08-17T04:25:41;5.05;;;2.70;;
58242;SDS011;50118;53.232;8.252;2023-08-17T04:28:07;6.90;;;2.88;;
58242;SDS011;50118;53.232;8.252;2023-08-17T04:30:32;6.95;;;2.90;;
58242;SDS011;50118;53.232;8.252;2023-08-17T04:32:58;7.30;;;2.90;;
58242;SDS011;50118;53.232;8.252;2023-08-17T04:35:26;7.28;;;2.85;;
58242;SDS011;50118;53.232;8.252;2023-08-17T04:37:52;4.60;;;2.70;;
58242;SDS011;50118;53.232;8.252;2023-08-17T04:40:20;5.53;;;2.80;;
58242;SDS011;50118;53.232;8.252;2023-08-17T04:42:45;6.65;;;2.67;;
58242;SDS011;50118;53.232;8.252;2023-08-17T04:45:11;7.95;;;2.80;;
58242;SDS011;50118;53.232;8.252;2023-08-17T04:47:36;7.20;;;3.20;;
58242;SDS011;50118;53.232;8.252;2023-08-17T04:50:02;4.25;;;2.70;;
58242;SDS011;50118;53.232;8.252;2023-08-17T04:52:28;7.35;;;2.83;;
58242;SDS011;50118;53.232;8.252;2023-08-17T04:54:53;5.82;;;2.88;;
58242;SDS011;50118;53.232;8.252;2023-08-17T04:57:21;6.90;;;3.05;;
58242;SDS011;50118;53.232;8.252;2023-08-17T04:59:46;7.68;;;2.97;;
58242;SDS011;50118;53.232;8.252;2023-08-17T05:02:12;5.63;;;2.80;;
58242;SDS011;50118;53.232;8.252;2023-08-17T05:04:37;6.85;;;2.90;;
58242;SDS011;50118;53.232;8.252;2023-08-17T05:07:04;7.25;;;2.90;;
58242;SDS011;50118;53.232;8.252;2023-08-17T05:09:30;10.10;;;3.00;;
58242;SDS011;50118;53.232;8.252;2023-08-17T05:11:55;6.55;;;2.60;;
58242;SDS011;50118;53.232;8.252;2023-08-17T05:14:21;8.32;;;2.80;;
58242;SDS011;50118;53.232;8.252;2023-08-17T05:16:46;6.70;;;2.90;;
58242;SDS011;50118;53.232;8.252;2023-08-17T05:19:12;6.80;;;2.92;;
58242;SDS011;50118;53.232;8.252;2023-08-17T05:21:37;7.05;;;3.13;;
58242;SDS011;50118;53.232;8.252;2023-08-17T05:24:03;5.05;;;2.97;;
58242;SDS011;50118;53.232;8.252;2023-08-17T05:26:28;7.10;;;2.90;;
58242;SDS011;50118;53.232;8.252;2023-08-17T05:28:54;5.95;;;3.10;;
58242;SDS011;50118;53.232;8.252;2023-08-17T05:31:19;7.25;;;2.80;;
58242;SDS011;50118;53.232;8.252;2023-08-17T05:33:44;6.63;;;2.88;;
58242;SDS011;50118;53.232;8.252;2023-08-17T05:36:10;5.45;;;3.03;;
58242;SDS011;50118;53.232;8.252;2023-08-17T05:38:36;8.38;;;3.33;;
58242;SDS011;50118;53.232;8.252;2023-08-17T05:41:01;4.97;;;2.97;;
58242;SDS011;50118;53.232;8.252;2023-08-17T05:43:27;5.60;;;3.13;;
58242;SDS011;50118;53.232;8.252;2023-08-17T05:45:52;7.05;;;3.28;;
58242;SDS011;50118;53.232;8.252;2023-08-17T05:48:18;7.35;;;3.03;;
58242;SDS011;50118;53.232;8.252;2023-08-17T05:50:45;7.63;;;3.28;;
58242;SDS011;50118;53.232;8.252;2023-08-17T05:53:11;7.47;;;3.10;;
58242;SDS011;50118;53.232;8.252;2023-08-17T05:55:36;7.10;;;3.17;;
58242;SDS011;50118;53.232;8.252;2023-08-17T05:58:01;8.40;;;3.55;;
58242;SDS011;50118;53.232;8.252;2023-08-17T06:00:28;8.32;;;3.05;;
58242;SDS011;50118;53.232;8.252;2023-08-17T06:02:54;7.85;;;3.15;;
58242;SDS011;50118;53.232;8.252;2023-08-17T06:05:25;5.35;;;3.22;;
58242;SDS011;50118;53.232;8.252;2023-08-17T06:07:52;6.20;;;3.22;;
58242;SDS011;50118;53.232;8.252;2023-08-17T06:10:17;6.18;;;3.00;;
58242;SDS011;50118;53.232;8.252;2023-08-17T06:12:43;8.05;;;3.70;;
58242;SDS011;50118;53.232;8.252;2023-08-17T06:15:08;7.78;;;3.35;;
58242;SDS011;50118;53.232;8.252;2023-08-17T06:17:34;6.15;;;3.15;;
58242;SDS011;50118;53.232;8.252;2023-08-17T06:19:59;8.38;;;3.20;;
58242;SDS011;50118;53.232;8.252;2023-08-17T06:22:25;5.90;;;2.95;;
58242;SDS011;50118;53.232;8.252;2023-08-17T06:24:51;5.43;;;2.90;;
58242;SDS011;50118;53.232;8.252;2023-08-17T06:27:16;8.52;;;3.50;;
58242;SDS011;50118;53.232;8.252;2023-08-17T06:29:41;7.30;;;3.05;;
58242;SDS011;50118;53.232;8.252;2023-08-17T06:32:07;7.30;;;3.22;;
58242;SDS011;50118;53.232;8.252;2023-08-17T06:34:33;6.47;;;3.00;;
58242;SDS011;50118;53.232;8.252;2023-08-17T06:36:59;5.90;;;3.00;;
58242;SDS011;50118;53.232;8.252;2023-08-17T06:39:27;7.35;;;2.72;;
58242;SDS011;50118;53.232;8.252;2023-08-17T06:41:53;8.30;;;3.40;;
58242;SDS011;50118;53.232;8.252;2023-08-17T06:44:18;6.88;;;3.20;;
58242;SDS011;50118;53.232;8.252;2023-08-17T06:46:44;7.00;;;3.00;;
58242;SDS011;50118;53.232;8.252;2023-08-17T06:49:10;5.57;;;2.83;;
58242;SDS011;50118;53.232;8.252;2023-08-17T06:51:36;5.00;;;2.90;;
58242;SDS011;50118;53.232;8.252;2023-08-17T06:54:01;10.13;;;3.40;;
58242;SDS011;50118;53.232;8.252;2023-08-17T06:56:27;6.03;;;3.15;;
58242;SDS011;50118;53.232;8.252;2023-08-17T06:58:52;5.03;;;2.97;;
58242;SDS011;50118;53.232;8.252;2023-08-17T07:01:18;6.60;;;3.05;;
58242;SDS011;50118;53.232;8.252;2023-08-17T07:03:43;4.53;;;2.90;;
58242;SDS011;50118;53.232;8.252;2023-08-17T07:06:09;5.80;;;3.00;;
58242;SDS011;50118;53.232;8.252;2023-08-17T07:08:35;6.10;;;2.95;;
58242;SDS011;50118;53.232;8.252;2023-08-17T07:11:00;8.27;;;3.10;;
58242;SDS011;50118;53.232;8.252;2023-08-17T07:13:26;6.03;;;3.17;;
58242;SDS011;50118;53.232;8.252;2023-08-17T07:15:52;6.55;;;3.30;;
58242;SDS011;50118;53.232;8.252;2023-08-17T07:18:18;8.05;;;3.38;;
58242;SDS011;50118;53.232;8.252;2023-08-17T07:20:43;10.60;;;3.53;;
58242;SDS011;50118;53.232;8.252;2023-08-17T07:23:09;6.07;;;3.50;;
58242;SDS011;50118;53.232;8.252;2023-08-17T07:25:34;9.55;;;3.60;;
58242;SDS011;50118;53.232;8.252;2023-08-17T07:28:00;7.72;;;3.45;;
58242;SDS011;50118;53.232;8.252;2023-08-17T07:30:28;5.82;;;3.10;;
58242;SDS011;50118;53.232;8.252;2023-08-17T07:32:53;6.30;;;3.50;;
58242;SDS011;50118;53.232;8.252;2023-08-17T07:35:19;6.72;;;3.00;;
58242;SDS011;50118;53.232;8.252;2023-08-17T07:37:46;6.85;;;3.30;;
58242;SDS011;50118;53.232;8.252;2023-08-17T07:40:11;6.80;;;3.30;;
58242;SDS011;50118;53.232;8.252;2023-08-17T07:42:37;7.93;;;3.55;;
58242;SDS011;50118;53.232;8.252;2023-08-17T07:45:02;8.48;;;3.60;;
58242;SDS011;50118;53.232;8.252;2023-08-17T07:47:33;5.80;;;3.45;;
58242;SDS011;50118;53.232;8.252;2023-08-17T07:50:01;4.60;;;3.15;;
58242;SDS011;50118;53.232;8.252;2023-08-17T07:52:32;7.35;;;3.80;;
58242;SDS011;50118;53.232;8.252;2023-08-17T07:54:58;6.78;;;3.40;;
58242;SDS011;50118;53.232;8.252;2023-08-17T07:57:23;6.97;;;3.40;;
58242;SDS011;50118;53.232;8.252;2023-08-17T07:59:49;7.35;;;3.20;;
58242;SDS011;50118;53.232;8.252;2023-08-17T08:02:16;6.07;;;3.42;;
58242;SDS011;50118;53.232;8.252;2023-08-17T08:04:42;7.55;;;3.50;;
58242;SDS011;50118;53.232;8.252;2023-08-17T08:07:07;6.03;;;3.20;;
58242;SDS011;50118;53.232;8.252;2023-08-17T08:09:32;6.60;;;3.20;;
58242;SDS011;50118;53.232;8.252;2023-08-17T08:11:58;9.32;;;3.40;;
58242;SDS011;50118;53.232;8.252;2023-08-17T08:14:24;11.23;;;3.60;;
58242;SDS011;50118;53.232;8.252;2023-08-17T08:16:50;5.30;;;3.55;;
58242;SDS011;50118;53.232;8.252;2023-08-17T08:19:15;7.75;;;3.60;;
58242;SDS011;50118;53.232;8.252;2023-08-17T08:21:44;6.35;;;3.70;;
58242;SDS011;50118;53.232;8.252;2023-08-17T08:24:10;5.82;;;3.63;;
58242;SDS011;50118;53.232;8.252;2023-08-17T08:26:35;6.95;;;3.63;;
58242;SDS011;50118;53.232;8.252;2023-08-17T08:29:00;6.35;;;3.53;;
58242;SDS011;50118;53.232;8.252;2023-08-17T08:31:26;9.18;;;4.32;;
58242;SDS011;50118;53.232;8.252;2023-08-17T08:33:51;7.65;;;3.92;;
58242;SDS011;50118;53.232;8.252;2023-08-17T08:36:18;6.90;;;3.78;;
58242;SDS011;50118;53.232;8.252;2023-08-17T08:38:43;8.63;;;3.80;;
58242;SDS011;50118;53.232;8.252;2023-08-17T08:41:09;7.82;;;3.97;;
58242;SDS011;50118;53.232;8.252;2023-08-17T08:43:36;5.75;;;3.70;;
58242;SDS011;50118;53.232;8.252;2023-08-17T08:46:02;7.18;;;3.60;;
58242;SDS011;50118;53.232;8.252;2023-08-17T08:48:29;7.78;;;3.65;;
58242;SDS011;50118;53.232;8.252;2023-08-17T08:50:57;5.85;;;3.22;;
58242;SDS011;50118;53.232;8.252;2023-08-17T08:53:35;6.82;;;3.63;;
58242;SDS011;50118;53.232;8.252;2023-08-17T08:56:03;6.28;;;3.55;;
58242;SDS011;50118;53.232;8.252;2023-08-17T08:58:29;6.30;;;3.42;;
58242;SDS011;50118;53.232;8.252;2023-08-17T09:00:58;6.28;;;3.30;;
58242;SDS011;50118;53.232;8.252;2023-08-17T09:03:26;6.80;;;3.50;;
58242;SDS011;50118;53.232;8.252;2023-08-17T09:05:52;6.05;;;3.08;;
58242;SDS011;50118;53.232;8.252;2023-08-17T09:08:20;5.88;;;3.53;;
58242;SDS011;50118;53.232;8.252;2023-08-17T09:10:47;5.97;;;3.30;;
58242;SDS011;50118;53.232;8.252;2023-08-17T09:13:14;7.28;;;3.38;;
58242;SDS011;50118;53.232;8.252;2023-08-17T09:15:39;7.38;;;3.40;;
58242;SDS011;50118;53.232;8.252;2023-08-17T09:18:05;5.97;;;3.70;;
58242;SDS011;50118;53.232;8.252;2023-08-17T09:20:44;6.30;;;3.70;;
58242;SDS011;50118;53.232;8.252;2023-08-17T09:23:17;7.85;;;3.95;;
58242;SDS011;50118;53.232;8.252;2023-08-17T09:25:47;6.07;;;3.50;;
58242;SDS011;50118;53.232;8.252;2023-08-17T09:28:18;7.13;;;3.80;;
58242;SDS011;50118;53.232;8.252;2023-08-17T09:30:56;6.88;;;3.65;;
58242;SDS011;50118;53.232;8.252;2023-08-17T09:33:24;6.45;;;3.95;;
58242;SDS011;50118;53.232;8.252;2023-08-17T09:35:52;5.95;;;3.58;;
58242;SDS011;50118;53.232;8.252;2023-08-17T09:38:21;7.55;;;3.83;;
58242;SDS011;50118;53.232;8.252;2023-08-17T09:40:47;5.50;;;3.70;;
58242;SDS011;50118;53.232;8.252;2023-08-17T09:43:14;6.07;;;3.30;;
58242;SDS011;50118;53.232;8.252;2023-08-17T09:45:40;5.00;;;3.60;;
58242;SDS011;50118;53.232;8.252;2023-08-17T09:48:09;5.13;;;3.30;;
58242;SDS011;50118;53.232;8.252;2023-08-17T09:50:35;6.28;;;4.32;;
58242;SDS011;50118;53.232;8.252;2023-08-17T09:53:02;6.43;;;5.40;;
58242;SDS011;50118;53.232;8.252;2023-08-17T09:55:29;6.10;;;4.10;;
58242;SDS011;50118;53.232;8.252;2023-08-17T09:57:57;4.43;;;3.70;;
58242;SDS011;50118;53.232;8.252;2023-08-17T10:00:23;5.07;;;3.47;;
58242;SDS011;50118;53.232;8.252;2023-08-17T10:02:50;5.63;;;3.40;;
58242;SDS011;50118;53.232;8.252;2023-08-17T10:05:17;6.32;;;3.40;;
58242;SDS011;50118;53.232;8.252;2023-08-17T10:07:46;5.07;;;3.50;;
58242;SDS011;50118;53.232;8.252;2023-08-17T10:10:22;5.38;;;3.60;;
58242;SDS011;50118;53.232;8.252;2023-08-17T10:15:48;6.53;;;3.33;;
58242;SDS011;50118;53.232;8.252;2023-08-17T10:21:05;5.45;;;3.70;;
58242;SDS011;50118;53.232;8.252;2023-08-17T10:23:35;6.85;;;3.97;;
58242;SDS011;50118;53.232;8.252;2023-08-17T10:26:03;5.13;;;3.50;;
58242;SDS011;50118;53.232;8.252;2023-08-17T10:28:33;6.05;;;3.70;;
58242;SDS011;50118;53.232;8.252;2023-08-17T10:31:02;7.00;;;3.58;;
58242;SDS011;50118;53.232;8.252;2023-08-17T10:33:28;5.82;;;3.80;;
58242;SDS011;50118;53.232;8.252;2023-08-17T10:35:54;6.57;;;3.60;;
58242;SDS011;50118;53.232;8.252;2023-08-17T10:38:21;4.20;;;3.42;;
58242;SDS011;50118;53.232;8.252;2023-08-17T10:40:47;5.18;;;3.40;;
58242;SDS011;50118;53.232;8.252;2023-08-17T10:43:33;5.05;;;3.45;;
58242;SDS011;50118;53.232;8.252;2023-08-17T10:46:14;5.78;;;3.20;;
58242;SDS011;50118;53.232;8.252;2023-08-17T10:48:43;5.18;;;3.30;;
58242;SDS011;50118;53.232;8.252;2023-08-17T10:51:09;4.75;;;2.90;;
58242;SDS011;50118;53.232;8.252;2023-08-17T10:53:38;5.28;;;2.60;;
58242;SDS011;50118;53.232;8.252;2023-08-17T10:56:08;4.97;;;3.00;;
58242;SDS011;50118;53.232;8.252;2023-08-17T10:58:37;4.47;;;2.80;;
58242;SDS011;50118;53.232;8.252;2023-08-17T11:01:03;4.40;;;2.70;;
58242;SDS011;50118;53.232;8.252;2023-08-17T11:03:28;4.15;;;2.90;;
58242;SDS011;50118;53.232;8.252;2023-08-17T11:05:58;4.75;;;2.90;;
58242;SDS011;50118;53.232;8.252;2023-08-17T11:08:39;6.17;;;2.60;;
58242;SDS011;50118;53.232;8.252;2023-08-17T11:11:16;5.03;;;2.30;;
58242;SDS011;50118;53.232;8.252;2023-08-17T11:13:45;3.88;;;2.08;;
58242;SDS011;50118;53.232;8.252;2023-08-17T11:16:12;2.78;;;2.00;;
58242;SDS011;50118;53.232;8.252;2023-08-17T11:18:38;3.38;;;2.28;;
58242;SDS011;50118;53.232;8.252;2023-08-17T11:21:07;3.50;;;2.33;;
58242;SDS011;50118;53.232;8.252;2023-08-17T11:23:35;3.80;;;3.00;;
58242;SDS011;50118;53.232;8.252;2023-08-17T11:26:02;5.03;;;2.85;;
58242;SDS011;50118;53.232;8.252;2023-08-17T11:28:31;4.55;;;3.10;;
58242;SDS011;50118;53.232;8.252;2023-08-17T11:31:01;5.25;;;3.92;;
58242;SDS011;50118;53.232;8.252;2023-08-17T11:33:29;5.65;;;3.75;;
58242;SDS011;50118;53.232;8.252;2023-08-17T11:36:03;6.18;;;3.85;;
58242;SDS011;50118;53.232;8.252;2023-08-17T11:38:37;6.68;;;3.88;;
58242;SDS011;50118;53.232;8.252;2023-08-17T11:41:05;5.70;;;3.80;;
58242;SDS011;50118;53.232;8.252;2023-08-17T11:43:33;6.45;;;3.75;;
58242;SDS011;50118;53.232;8.252;2023-08-17T11:45:59;5.13;;;3.42;;
58242;SDS011;50118;53.232;8.252;2023-08-17T11:48:25;6.13;;;3.75;;
58242;SDS011;50118;53.232;8.252;2023-08-17T11:50:52;6.57;;;4.25;;
58242;SDS011;50118;53.232;8.252;2023-08-17T11:53:19;8.15;;;3.38;;
58242;SDS011;50118;53.232;8.252;2023-08-17T11:55:44;5.80;;;3.10;;
58242;SDS011;50118;53.232;8.252;2023-08-17T11:58:09;4.57;;;2.85;;
58242;SDS011;50118;53.232;8.252;2023-08-17T12:00:36;4.55;;;2.45;;
58242;SDS011;50118;53.232;8.252;2023-08-17T12:03:04;3.92;;;2.50;;
58242;SDS011;50118;53.232;8.252;2023-08-17T12:05:30;3.58;;;2.10;;
58242;SDS011;50118;53.232;8.252;2023-08-17T12:07:57;4.28;;;2.50;;
58242;SDS011;50118;53.232;8.252;2023-08-17T12:10:27;4.75;;;2.40;;
58242;SDS011;50118;53.232;8.252;2023-08-17T12:12:53;6.55;;;2.58;;
58242;SDS011;50118;53.232;8.252;2023-08-17T12:15:18;4.00;;;2.38;;
58242;SDS011;50118;53.232;8.252;2023-08-17T12:17:47;4.28;;;2.80;;
58242;SDS011;50118;53.232;8.252;2023-08-17T12:20:17;4.05;;;2.70;;
58242;SDS011;50118;53.232;8.252;2023-08-17T12:22:43;4.03;;;2.67;;
58242;SDS011;50118;53.232;8.252;2023-08-17T12:25:09;5.07;;;2.58;;
58242;SDS011;50118;53.232;8.252;2023-08-17T12:27:35;4.38;;;2.55;;
58242;SDS011;50118;53.232;8.252;2023-08-17T12:30:01;3.25;;;2.22;;
58242;SDS011;50118;53.232;8.252;2023-08-17T12:32:26;4.40;;;2.50;;
58242;SDS011;50118;53.232;8.252;2023-08-17T12:34:52;4.43;;;2.22;;
58242;SDS011;50118;53.232;8.252;2023-08-17T12:37:18;4.00;;;2.35;;
58242;SDS011;50118;53.232;8.252;2023-08-17T12:39:45;5.90;;;2.70;;
58242;SDS011;50118;53.232;8.252;2023-08-17T12:42:12;3.85;;;2.42;;
58242;SDS011;50118;53.232;8.252;2023-08-17T12:44:37;4.38;;;2.30;;
58242;SDS011;50118;53.232;8.252;2023-08-17T12:47:03;3.30;;;2.20;;
58242;SDS011;50118;53.232;8.252;2023-08-17T12:49:28;3.85;;;2.25;;
58242;SDS011;50118;53.232;8.252;2023-08-17T12:51:54;4.47;;;2.20;;
58242;SDS011;50118;53.232;8.252;2023-08-17T12:54:19;3.50;;;2.30;;
58242;SDS011;50118;53.232;8.252;2023-08-17T12:56:45;3.50;;;2.05;;
58242;SDS011;50118;53.232;8.252;2023-08-17T12:59:10;3.78;;;2.35;;
58242;SDS011;50118;53.232;8.252;2023-08-17T13:01:36;3.88;;;2.53;;
58242;SDS011;50118;53.232;8.252;2023-08-17T13:04:01;4.32;;;2.30;;
58242;SDS011;50118;53.232;8.252;2023-08-17T13:06:27;3.80;;;2.20;;
58242;SDS011;50118;53.232;8.252;2023-08-17T13:08:52;3.45;;;2.20;;
58242;SDS011;50118;53.232;8.252;2023-08-17T13:11:19;6.18;;;2.70;;
58242;SDS011;50118;53.232;8.252;2023-08-17T13:13:44;4.65;;;2.58;;
58242;SDS011;50118;53.232;8.252;2023-08-17T13:16:09;3.90;;;2.50;;
58242;SDS011;50118;53.232;8.252;2023-08-17T13:18:36;4.05;;;2.50;;
58242;SDS011;50118;53.232;8.252;2023-08-17T13:21:02;4.47;;;2.35;;
58242;SDS011;50118;53.232;8.252;2023-08-17T13:23:28;4.20;;;2.40;;
58242;SDS011;50118;53.232;8.252;2023-08-17T13:25:54;4.20;;;2.38;;
58242;SDS011;50118;53.232;8.252;2023-08-17T13:28:19;3.35;;;2.20;;
58242;SDS011;50118;53.232;8.252;2023-08-17T13:30:44;4.10;;;2.38;;
58242;SDS011;50118;53.232;8.252;2023-08-17T13:33:12;3.78;;;2.00;;
58242;SDS011;50118;53.232;8.252;2023-08-17T13:35:38;4.00;;;2.15;;
58242;SDS011;50118;53.232;8.252;2023-08-17T13:38:03;4.28;;;2.30;;
58242;SDS011;50118;53.232;8.252;2023-08-17T13:40:30;5.85;;;2.53;;
58242;SDS011;50118;53.232;8.252;2023-08-17T13:42:57;4.03;;;2.30;;
58242;SDS011;50118;53.232;8.252;2023-08-17T13:45:26;4.35;;;2.35;;
58242;SDS011;50118;53.232;8.252;2023-08-17T13:47:51;4.47;;;2.28;;
58242;SDS011;50118;53.232;8.252;2023-08-17T13:50:17;4.40;;;2.53;;
58242;SDS011;50118;53.232;8.252;2023-08-17T13:52:43;4.00;;;2.53;;
58242;SDS011;50118;53.232;8.252;2023-08-17T13:55:09;4.38;;;2.60;;
58242;SDS011;50118;53.232;8.252;2023-08-17T13:57:41;3.65;;;2.60;;
58242;SDS011;50118;53.232;8.252;2023-08-17T14:00:06;4.38;;;2.75;;
58242;SDS011;50118;53.232;8.252;2023-08-17T14:02:32;4.90;;;2.90;;
58242;SDS011;50118;53.232;8.252;2023-08-17T14:04:58;4.60;;;3.08;;
58242;SDS011;50118;53.232;8.252;2023-08-17T14:07:24;4.93;;;3.17;;
58242;SDS011;50118;53.232;8.252;2023-08-17T14:09:49;5.85;;;4.07;;
58242;SDS011;50118;53.232;8.252;2023-08-17T14:12:15;6.85;;;5.80;;
58242;SDS011;50118;53.232;8.252;2023-08-17T14:14:41;7.28;;;6.15;;
58242;SDS011;50118;53.232;8.252;2023-08-17T14:17:09;7.10;;;6.40;;
58242;SDS011;50118;53.232;8.252;2023-08-17T14:19:35;9.30;;;8.27;;
58242;SDS011;50118;53.232;8.252;2023-08-17T14:22:00;9.80;;;8.90;;
58242;SDS011;50118;53.232;8.252;2023-08-17T14:24:26;10.93;;;9.93;;
58242;SDS011;50118;53.232;8.252;2023-08-17T14:26:52;10.60;;;9.60;;
58242;SDS011;50118;53.232;8.252;2023-08-17T14:29:18;11.15;;;10.05;;
58242;SDS011;50118;53.232;8.252;2023-08-17T14:31:44;10.30;;;9.30;;
58242;SDS011;50118;53.232;8.252;2023-08-17T14:34:09;8.77;;;7.97;;
58242;SDS011;50118;53.232;8.252;2023-08-17T14:36:35;7.32;;;6.47;;
58242;SDS011;50118;53.232;8.252;2023-08-17T14:39:00;3.92;;;3.00;;
58242;SDS011;50118;53.232;8.252;2023-08-17T14:41:26;2.20;;;1.95;;
58242;SDS011;50118;53.232;8.252;2023-08-17T14:43:56;2.10;;;1.70;;
58242;SDS011;50118;53.232;8.252;2023-08-17T14:46:24;2.42;;;1.50;;
58242;SDS011;50118;53.232;8.252;2023-08-17T14:48:50;3.20;;;1.40;;
58242;SDS011;50118;53.232;8.252;2023-08-17T14:51:21;1.60;;;1.40;;
58242;SDS011;50118;53.232;8.252;2023-08-17T14:53:49;1.75;;;1.20;;
58242;SDS011;50118;53.232;8.252;2023-08-17T14:56:17;2.15;;;1.40;;
58242;SDS011;50118;53.232;8.252;2023-08-17T14:58:42;2.00;;;1.17;;
58242;SDS011;50118;53.232;8.252;2023-08-17T15:01:08;1.60;;;1.20;;